createdAt,value
2022-08-03T00:02:32.985Z,100394.03
2022-08-03T00:05:37.052Z,100393.06
2022-08-03T00:08:40.299Z,100397.38
2022-08-03T00:11:43.539Z,100405.19
2022-08-03T00:14:46.214Z,100397.03
2022-08-03T00:17:52.519Z,100396.69
2022-08-03T00:20:57.455Z,100406.87
2022-08-03T00:24:00.420Z,100403.81
2022-08-03T00:27:03.101Z,100387.62
2022-08-03T00:30:06.869Z,100387.62
2022-08-03T00:33:10.915Z,100391.97
2022-08-03T00:36:13.883Z,100393.84
2022-08-03T00:39:18.001Z,100396.28
2022-08-03T00:42:21.100Z,100392.84
2022-08-03T00:45:32.582Z,100391.66
2022-08-03T00:48:35.631Z,100401.25
2022-08-03T00:51:38.893Z,100394.47
2022-08-03T00:54:41.898Z,100392.53
2022-08-03T00:57:45.380Z,100394.62
2022-08-03T01:00:48.455Z,100403.81
2022-08-03T01:03:51.241Z,100398.19
2022-08-03T01:07:02.189Z,100400.59
2022-08-03T01:10:51.027Z,100407.44
2022-08-03T01:14:18.845Z,100405.03
2022-08-03T01:17:35.867Z,100406.66
2022-08-03T01:20:43.918Z,100397.34
2022-08-03T01:23:59.927Z,100403.25
2022-08-03T01:27:13.299Z,100412.41
2022-08-03T01:30:17.206Z,100417.47
2022-08-03T01:33:26.538Z,100404.91
2022-08-03T01:36:39.115Z,100410.47
2022-08-03T01:39:45.790Z,100414.50
2022-08-03T01:42:51.297Z,100409.81
2022-08-03T01:45:57.494Z,100406.47
2022-08-03T01:49:09.160Z,100400.56
2022-08-03T01:52:18.342Z,100409.69
2022-08-03T01:55:24.645Z,100411.50
2022-08-03T01:58:30.222Z,100404.06
2022-08-03T02:02:16.116Z,100398.06
2022-08-03T02:05:04.551Z,100404.69
2022-08-03T02:08:11.331Z,100398.53
2022-08-03T02:11:15.882Z,100409.72
2022-08-03T02:14:21.694Z,100404.91
2022-08-03T02:17:39.679Z,100403.25
2022-08-03T02:20:44.951Z,100407.06
2022-08-03T02:23:49.241Z,100401.91
2022-08-03T02:26:56.048Z,100408.66
2022-08-03T02:30:05.269Z,100405.44
2022-08-03T02:33:14.631Z,100410.41
2022-08-03T02:36:27.338Z,100409.28
2022-08-03T02:39:32.926Z,100417.81
2022-08-03T02:42:39.145Z,100415.19
2022-08-03T02:45:46.364Z,100421.62
2022-08-03T02:48:52.666Z,100430.88
2022-08-03T02:51:57.996Z,100418.50
2022-08-03T02:55:03.837Z,100424.84
2022-08-03T02:58:10.087Z,100419.22
2022-08-03T03:01:14.844Z,100427.81
2022-08-03T03:04:19.552Z,100423.78
2022-08-03T03:07:26.538Z,100432.97
2022-08-03T03:10:31.959Z,100432.25
2022-08-03T03:13:37.097Z,100426.22
2022-08-03T03:16:41.868Z,100430.25
2022-08-03T03:19:45.859Z,100434.94
2022-08-03T03:22:52.503Z,100437.31
2022-08-03T03:25:58.673Z,100428.53
2022-08-03T03:29:02.546Z,100419.72
2022-08-03T03:32:08.332Z,100436.59
2022-08-03T03:35:15.064Z,100432.03
2022-08-03T03:38:20.169Z,100422.91
2022-08-03T03:41:22.834Z,100421.72
2022-08-03T03:44:30.261Z,100429.31
2022-08-03T03:47:34.485Z,100435.38
2022-08-03T03:50:41.128Z,100440.13
2022-08-03T03:54:00.704Z,100435.75
2022-08-03T03:57:03.984Z,100450.19
2022-08-03T04:00:07.655Z,100450.25
2022-08-03T04:03:12.573Z,100447.81
2022-08-03T04:06:34.182Z,100450.19
2022-08-03T04:09:59.210Z,100446.59
2022-08-03T04:13:15.957Z,100455.78
2022-08-03T04:16:24.369Z,100467.72
2022-08-03T04:19:43.541Z,100470.56
2022-08-03T04:22:49.949Z,100473.69
2022-08-03T04:25:54.868Z,100476.91
2022-08-03T04:29:00.669Z,100482.47
2022-08-03T04:32:06.974Z,100476.81
2022-08-03T04:35:10.524Z,100475.50
2022-08-03T04:38:16.239Z,100483.78
2022-08-03T04:41:21.285Z,100471.72
2022-08-03T04:44:28.301Z,100484.03
2022-08-03T04:47:34.493Z,100487.53
2022-08-03T04:50:37.464Z,100497.06
2022-08-03T04:53:40.969Z,100489.38
2022-08-03T04:56:44.348Z,100500.53
2022-08-03T04:59:49.472Z,100485.59
2022-08-03T05:02:52.317Z,100503.78
2022-08-03T05:06:09.539Z,100492.47
2022-08-03T05:09:12.830Z,100488.72
2022-08-03T05:12:17.888Z,100501.75
2022-08-03T05:15:20.919Z,100490.41
2022-08-03T05:18:23.986Z,100490.12
2022-08-03T05:21:26.724Z,100493.75
2022-08-03T05:24:50.296Z,100486.75
2022-08-03T05:27:53.043Z,100490.03
2022-08-03T05:30:56.288Z,100496.69
2022-08-03T05:33:58.998Z,100495.81
2022-08-03T05:37:02.024Z,100497.03
2022-08-03T05:40:05.479Z,100490.44
2022-08-03T05:43:08.472Z,100497.84
2022-08-03T05:46:12.334Z,100498.56
2022-08-03T05:49:16.252Z,100498.81
2022-08-03T05:52:18.943Z,100498.72
2022-08-03T05:55:22.096Z,100502.97
2022-08-03T05:58:24.976Z,100510.19
2022-08-03T06:01:33.408Z,100503.31
2022-08-03T06:04:36.489Z,100500.59
2022-08-03T06:07:39.264Z,100505.22
2022-08-03T06:10:42.295Z,100502.47
2022-08-03T06:13:45.274Z,100507.13
2022-08-03T06:16:49.460Z,100507.47
2022-08-03T06:19:53.752Z,100517.94
2022-08-03T06:23:00.446Z,100514.59
2022-08-03T06:26:04.792Z,100509.34
2022-08-03T06:29:09.925Z,100514.97
2022-08-03T06:32:12.691Z,100520.56
2022-08-03T06:35:16.499Z,100517.16
2022-08-03T06:38:20.132Z,100511.47
2022-08-03T06:41:23.092Z,100512.88
2022-08-03T06:44:25.789Z,100512.91
2022-08-03T06:47:29.768Z,100508.66
2022-08-03T06:50:35.359Z,100515.28
2022-08-03T06:53:38.366Z,100512.59
2022-08-03T06:56:41.040Z,100502.97
2022-08-03T07:00:07.339Z,100512.56
2022-08-03T07:03:06.680Z,100514.78
2022-08-03T07:06:09.921Z,100520.34
2022-08-03T07:09:12.522Z,100515.69
2022-08-03T07:12:15.683Z,100507.81
2022-08-03T07:15:20.587Z,100506.00
2022-08-03T07:18:41.666Z,100510.28
2022-08-03T07:21:45.628Z,100504.91
2022-08-03T07:24:48.637Z,100515.69
2022-08-03T07:27:51.852Z,100505.37
2022-08-03T07:30:55.177Z,100504.97
2022-08-03T07:33:57.946Z,100516.19
2022-08-03T07:37:01.045Z,100510.47
2022-08-03T07:40:05.760Z,100507.59
2022-08-03T07:43:08.806Z,100499.84
2022-08-03T07:46:11.613Z,100512.38
2022-08-03T07:49:14.941Z,100515.34
2022-08-03T07:52:36.893Z,100501.47
2022-08-03T07:55:41.086Z,100501.44
2022-08-03T07:58:43.875Z,100497.94
2022-08-03T08:01:46.984Z,100493.09
2022-08-03T08:04:50.100Z,100493.47
2022-08-03T08:07:52.792Z,100503.09
2022-08-03T08:10:58.120Z,100498.75
2022-08-03T08:14:04.093Z,100495.75
2022-08-03T08:17:07.501Z,100506.00
2022-08-03T08:20:12.627Z,100494.37
2022-08-03T08:23:37.842Z,100503.09
2022-08-03T08:26:38.668Z,100505.13
2022-08-03T08:29:47.666Z,100495.19
2022-08-03T08:32:59.155Z,100501.81
2022-08-03T08:36:02.085Z,100496.56
2022-08-03T08:39:04.856Z,100494.78
2022-08-03T08:42:07.811Z,100497.94
2022-08-03T08:45:12.200Z,100496.91
2022-08-03T08:48:15.830Z,100493.06
2022-08-03T08:51:20.851Z,100488.41
2022-08-03T08:54:25.817Z,100486.84
2022-08-03T08:57:42.727Z,100484.00
2022-08-03T09:00:48.616Z,100489.19
2022-08-03T09:03:53.529Z,100484.22
2022-08-03T09:07:18.729Z,100486.00
2022-08-03T09:10:22.208Z,100483.16
2022-08-03T09:13:25.607Z,100473.16
2022-08-03T09:16:28.299Z,100480.75
2022-08-03T09:19:32.997Z,100469.53
2022-08-03T09:22:36.191Z,100480.44
2022-08-03T09:25:41.179Z,100464.66
2022-08-03T09:29:01.681Z,100455.69
2022-08-03T09:32:08.149Z,100461.97
2022-08-03T09:35:11.860Z,100446.81
2022-08-03T09:38:16.555Z,100458.69
2022-08-03T09:41:19.863Z,100454.31
2022-08-03T09:44:35.699Z,100447.66
2022-08-03T09:47:44.919Z,100441.47
2022-08-03T09:50:56.901Z,100444.47
2022-08-03T09:54:32.219Z,100442.69
2022-08-03T09:57:37.406Z,100438.13
2022-08-03T10:01:23.644Z,100446.34
2022-08-03T10:04:28.739Z,100440.97
2022-08-03T10:07:45.888Z,100438.91
2022-08-03T10:10:54.160Z,100426.69
2022-08-03T10:13:58.015Z,100422.09
2022-08-03T10:17:05.023Z,100425.94
2022-08-03T10:20:09.640Z,100418.53
2022-08-03T10:23:15.183Z,100413.44
2022-08-03T10:26:22.756Z,100410.09
2022-08-03T10:29:29.111Z,100416.00
2022-08-03T10:32:35.508Z,100408.00
2022-08-03T10:35:41.481Z,100410.69
2022-08-03T10:38:52.832Z,100406.78
2022-08-03T10:42:00.030Z,100406.94
2022-08-03T10:45:09.218Z,100399.50
2022-08-03T10:48:12.662Z,100394.38
2022-08-03T10:51:16.084Z,100403.59
2022-08-03T10:55:01.132Z,100399.13
2022-08-03T10:58:10.851Z,100407.00
2022-08-03T11:01:14.345Z,100387.00
2022-08-03T11:04:19.600Z,100393.94
2022-08-03T11:07:24.685Z,100378.81
2022-08-03T11:10:32.137Z,100383.03
2022-08-03T11:13:35.140Z,100374.19
2022-08-03T11:16:47.979Z,100370.72
2022-08-03T11:19:57.316Z,100376.84
2022-08-03T11:23:01.879Z,100359.13
2022-08-03T11:26:17.670Z,100365.38
2022-08-03T11:29:31.882Z,100358.38
2022-08-03T11:32:37.780Z,100353.69
2022-08-03T11:35:59.312Z,100352.91
2022-08-03T11:39:18.204Z,100351.03
2022-08-03T11:42:27.656Z,100351.78
2022-08-03T11:45:31.621Z,100345.00
2022-08-03T11:48:37.466Z,100347.31
2022-08-03T11:51:41.177Z,100347.06
2022-08-03T11:54:44.938Z,100345.00
2022-08-03T11:59:01.491Z,100340.38
2022-08-03T12:01:12.709Z,100345.50
2022-08-03T12:04:16.674Z,100336.88
2022-08-03T12:07:25.892Z,100336.69
2022-08-03T12:10:51.553Z,100324.16
2022-08-03T12:14:44.751Z,100328.28
2022-08-03T12:17:17.790Z,100319.59
2022-08-03T12:20:34.793Z,100319.75
2022-08-03T12:23:39.470Z,100315.19
2022-08-03T12:26:59.560Z,100314.38
2022-08-03T12:30:04.988Z,100329.53
2022-08-03T12:33:25.154Z,100318.66
2022-08-03T12:36:29.476Z,100312.66
2022-08-03T12:39:32.327Z,100310.38
2022-08-03T12:42:39.313Z,100311.06
2022-08-03T12:45:43.233Z,100302.81
2022-08-03T12:49:11.180Z,100300.81
2022-08-03T12:52:14.680Z,100293.84
2022-08-03T12:55:22.589Z,100288.91
2022-08-03T12:58:36.138Z,100295.28
2022-08-03T13:01:54.984Z,100292.00
2022-08-03T13:04:59.582Z,100290.56
2022-08-03T13:08:03.530Z,100292.13
2022-08-03T13:11:50.587Z,100284.78
2022-08-03T13:14:52.067Z,100293.75
2022-08-03T13:17:59.554Z,100282.97
2022-08-03T13:21:03.065Z,100277.87
2022-08-03T13:24:06.039Z,100272.19
2022-08-03T13:28:01.091Z,100277.22
2022-08-03T13:30:34.310Z,100278.34
2022-08-03T13:33:39.274Z,100262.34
2022-08-03T13:37:07.418Z,100265.28
2022-08-03T13:40:07.407Z,100270.63
2022-08-03T13:43:10.287Z,100269.44
2022-08-03T13:46:13.298Z,100262.16
2022-08-03T13:49:17.012Z,100266.75
2022-08-03T13:52:20.779Z,100261.09
2022-08-03T13:55:24.243Z,100255.53
2022-08-03T13:58:27.182Z,100255.03
2022-08-03T14:01:54.390Z,100243.13
2022-08-03T14:04:53.661Z,100248.72
2022-08-03T14:07:56.833Z,100243.28
2022-08-03T14:11:07.685Z,100245.88
2022-08-03T14:14:10.503Z,100246.41
2022-08-03T14:17:13.459Z,100233.03
2022-08-03T14:20:38.084Z,100238.66
2022-08-03T14:23:42.438Z,100231.34
2022-08-03T14:26:45.140Z,100236.72
2022-08-03T14:29:48.125Z,100228.22
2022-08-03T14:32:50.741Z,100220.37
2022-08-03T14:35:53.934Z,100231.03
2022-08-03T14:39:01.069Z,100221.47
2022-08-03T14:42:04.694Z,100218.69
2022-08-03T14:45:09.573Z,100220.66
2022-08-03T14:50:30.828Z,100227.50
2022-08-03T14:51:51.318Z,100220.53
2022-08-03T14:54:57.067Z,100221.13
2022-08-03T14:58:02.728Z,100219.34
2022-08-03T15:02:01.846Z,100225.31
2022-08-03T15:04:30.612Z,100217.47
2022-08-03T15:07:33.696Z,100209.13
2022-08-03T15:10:44.180Z,100221.66
2022-08-03T15:13:48.505Z,100212.03
2022-08-03T15:16:51.742Z,100222.47
2022-08-03T15:20:00.930Z,100215.94
2022-08-03T15:23:18.739Z,100218.53
2022-08-03T15:26:30.486Z,100216.19
2022-08-03T15:30:06.739Z,100215.44
2022-08-03T15:33:00.727Z,100208.09
2022-08-03T15:36:04.946Z,100206.31
2022-08-03T15:39:08.165Z,100210.47
2022-08-03T15:42:10.904Z,100216.94
2022-08-03T15:45:13.855Z,100211.47
2022-08-03T15:48:26.424Z,100205.12
2022-08-03T15:51:29.981Z,100202.25
2022-08-03T15:54:32.657Z,100209.03
2022-08-03T15:59:04.506Z,100197.53
2022-08-03T16:00:58.573Z,100201.97
2022-08-03T16:04:01.676Z,100207.44
2022-08-03T16:07:04.474Z,100198.56
2022-08-03T16:10:08.193Z,100201.12
2022-08-03T16:13:10.944Z,100195.69
2022-08-03T16:16:14.213Z,100197.75
2022-08-03T16:19:16.897Z,100202.44
2022-08-03T16:22:19.897Z,100189.63
2022-08-03T16:25:25.867Z,100198.41
2022-08-03T16:28:30.357Z,100201.78
2022-08-03T16:31:33.053Z,100190.81
2022-08-03T16:34:37.366Z,100192.38
2022-08-03T16:37:41.103Z,100192.56
2022-08-03T16:40:59.269Z,100190.44
2022-08-03T16:44:04.377Z,100193.00
2022-08-03T16:47:11.197Z,100199.53
2022-08-03T16:50:25.204Z,100186.94
2022-08-03T16:53:51.549Z,100191.03
2022-08-03T16:56:50.800Z,100199.38
2022-08-03T16:59:54.478Z,100210.75
2022-08-03T17:03:01.311Z,100202.63
2022-08-03T17:06:09.356Z,100202.03
2022-08-03T17:09:20.884Z,100207.72
2022-08-03T17:12:26.708Z,100212.03
2022-08-03T17:15:38.313Z,100214.03
2022-08-03T17:18:56.972Z,100215.50
2022-08-03T17:22:09.271Z,100215.97
2022-08-03T17:25:13.818Z,100220.00
2022-08-03T17:28:51.423Z,100222.47
2022-08-03T17:31:53.197Z,100226.47
2022-08-03T17:34:56.351Z,100218.47
2022-08-03T17:38:03.374Z,100230.28
2022-08-03T17:41:10.878Z,100233.00
2022-08-03T17:44:30.174Z,100225.53
2022-08-03T17:47:42.342Z,100226.44
2022-08-03T17:51:29.722Z,100223.16
2022-08-03T17:55:55.231Z,100222.94
2022-08-03T17:58:58.792Z,100226.31
2022-08-03T18:02:51.489Z,100228.09
2022-08-03T18:06:11.788Z,100239.47
2022-08-03T18:10:06.067Z,100233.22
2022-08-03T18:13:04.017Z,100235.25
2022-08-03T18:16:20.540Z,100241.88
2022-08-03T18:20:02.579Z,100242.81
2022-08-03T18:22:50.106Z,100242.97
2022-08-03T18:25:58.247Z,100244.16
2022-08-03T18:29:03.251Z,100235.03
2022-08-03T18:32:13.579Z,100248.16
2022-08-03T18:35:20.932Z,100253.34
2022-08-03T18:38:30.935Z,100248.62
2022-08-03T18:41:36.706Z,100257.75
2022-08-03T18:44:54.360Z,100272.16
2022-08-03T18:48:23.232Z,100264.63
2022-08-03T18:51:43.361Z,100277.84
2022-08-03T18:55:02.345Z,100274.22
2022-08-03T18:58:17.890Z,100276.28
2022-08-03T19:01:57.823Z,100272.50
2022-08-03T19:05:07.654Z,100281.03
2022-08-03T19:08:20.675Z,100281.00
2022-08-03T19:12:12.670Z,100278.03
2022-08-03T19:15:12.402Z,100284.81
2022-08-03T19:18:18.261Z,100289.88
2022-08-03T19:21:21.842Z,100290.34
2022-08-03T19:24:26.777Z,100289.72
2022-08-03T19:27:32.116Z,100297.75
2022-08-03T19:30:38.821Z,100295.03
2022-08-03T19:33:55.945Z,100297.38
2022-08-03T19:37:01.588Z,100294.22
2022-08-03T19:40:10.961Z,100307.78
2022-08-03T19:43:23.030Z,100305.66
2022-08-03T19:46:31.105Z,100304.22
2022-08-03T19:50:05.264Z,100301.97
2022-08-03T19:53:07.564Z,100302.56
2022-08-03T19:56:19.399Z,100300.38
2022-08-03T19:59:24.089Z,100304.28
2022-08-03T20:02:29.968Z,100296.91
2022-08-03T20:05:44.970Z,100306.91
2022-08-03T20:08:55.761Z,100313.59
2022-08-03T20:12:02.791Z,100309.94
2022-08-03T20:15:06.696Z,100309.41
2022-08-03T20:18:16.659Z,100301.28
2022-08-03T20:21:24.943Z,100300.59
2022-08-03T20:24:34.448Z,100300.59
2022-08-03T20:28:06.852Z,100311.34
2022-08-03T20:31:25.228Z,100300.06
2022-08-03T20:34:36.167Z,100305.00
2022-08-03T20:37:39.161Z,100306.13
2022-08-03T20:40:47.023Z,100305.31
2022-08-03T20:43:51.070Z,100309.81
2022-08-03T20:47:00.444Z,100300.81
2022-08-03T20:50:07.480Z,100309.03
2022-08-03T20:53:11.983Z,100307.69
2022-08-03T20:56:15.933Z,100306.13
2022-08-03T20:59:20.229Z,100308.47
2022-08-03T21:02:29.926Z,100303.06
2022-08-03T21:05:51.578Z,100308.50
2022-08-03T21:09:04.263Z,100312.41
2022-08-03T21:12:12.151Z,100307.81
2022-08-03T21:16:06.597Z,100307.63
2022-08-03T21:18:51.261Z,100314.84
2022-08-03T21:21:55.589Z,100315.09
2022-08-03T21:25:02.279Z,100325.50
2022-08-03T21:28:10.145Z,100320.81
2022-08-03T21:31:14.031Z,100323.94
2022-08-03T21:34:17.807Z,100328.87
2022-08-03T21:37:21.392Z,100341.09
2022-08-03T21:40:24.675Z,100346.13
2022-08-03T21:43:27.442Z,100345.31
2022-08-03T21:46:36.682Z,100349.97
2022-08-03T21:50:07.970Z,100348.81
2022-08-03T21:53:07.070Z,100340.25
2022-08-03T21:56:11.923Z,100349.50
2022-08-03T21:59:20.107Z,100347.56
2022-08-03T22:02:31.483Z,100355.81
2022-08-03T22:05:43.729Z,100354.06
2022-08-03T22:08:47.639Z,100353.00
2022-08-03T22:11:54.318Z,100359.22
2022-08-03T22:15:01.204Z,100359.19
2022-08-03T22:18:06.093Z,100355.56
2022-08-03T22:21:11.788Z,100361.47
2022-08-03T22:24:19.085Z,100357.97
2022-08-03T22:27:31.515Z,100361.47
2022-08-03T22:30:34.844Z,100362.87
2022-08-03T22:33:38.598Z,100368.22
2022-08-03T22:36:42.469Z,100364.47
2022-08-03T22:39:46.998Z,100363.19
2022-08-03T22:42:52.751Z,100363.66
2022-08-03T22:46:09.321Z,100364.78
2022-08-03T22:49:16.535Z,100363.09
2022-08-03T22:52:20.439Z,100361.88
2022-08-03T22:55:26.058Z,100367.06
2022-08-03T22:58:28.732Z,100357.62
2022-08-03T23:01:43.128Z,100359.13
2022-08-03T23:04:50.737Z,100364.72
2022-08-03T23:07:53.842Z,100361.34
2022-08-03T23:11:02.713Z,100360.66
2022-08-03T23:14:15.429Z,100356.94
2022-08-03T23:17:20.617Z,100358.34
2022-08-03T23:20:26.475Z,100356.75
2022-08-03T23:23:30.067Z,100361.94
2022-08-03T23:26:48.244Z,100358.38
2022-08-03T23:29:51.297Z,100364.84
2022-08-03T23:32:55.001Z,100362.13
2022-08-03T23:36:27.978Z,100360.53
2022-08-03T23:39:34.852Z,100355.56
2022-08-03T23:42:39.187Z,100352.75
2022-08-03T23:45:45.276Z,100354.63
2022-08-03T23:48:48.065Z,100362.78
2022-08-03T23:51:51.028Z,100348.16
2022-08-03T23:54:59.528Z,100353.44
2022-08-03T23:58:21.691Z,100356.22
